sensor_id;sensor_type;location;lat;lon;timestamp;pressure;altitude;pressure_sealevel;temperature;humidity
57126;BME280;43000;50.770;6.110;2022-07-04T00:01:08;100012.72;;;14.62;68.20
57126;BME280;43000;50.770;6.110;2022-07-04T00:03:35;100013.78;;;14.59;67.86
57126;BME280;43000;50.770;6.110;2022-07-04T00:06:01;100008.84;;;14.53;68.00
57126;BME280;43000;50.770;6.110;2022-07-04T00:08:28;100013.66;;;14.46;68.39
57126;BME280;43000;50.770;6.110;2022-07-04T00:10:54;100014.06;;;14.40;68.19
57126;BME280;43000;50.770;6.110;2022-07-04T00:13:21;100004.28;;;14.41;68.16
57126;BME280;43000;50.770;6.110;2022-07-04T00:15:49;100010.34;;;14.43;68.03
57126;BME280;43000;50.770;6.110;2022-07-04T00:18:15;100013.16;;;14.39;68.08
57126;BME280;43000;50.770;6.110;2022-07-04T00:20:42;100007.13;;;14.37;69.02
57126;BME280;43000;50.770;6.110;2022-07-04T00:23:08;99999.34;;;14.34;68.64
57126;BME280;43000;50.770;6.110;2022-07-04T00:25:35;100009.38;;;14.29;68.80
57126;BME280;43000;50.770;6.110;2022-07-04T00:28:02;100012.41;;;14.23;68.74
57126;BME280;43000;50.770;6.110;2022-07-04T00:30:28;100006.81;;;14.13;69.12
57126;BME280;43000;50.770;6.110;2022-07-04T00:32:56;100003.47;;;14.10;69.12
57126;BME280;43000;50.770;6.110;2022-07-04T00:35:23;100002.06;;;14.04;69.40
57126;BME280;43000;50.770;6.110;2022-07-04T00:37:49;100001.56;;;13.98;69.10
57126;BME280;43000;50.770;6.110;2022-07-04T00:40:16;100001.56;;;13.98;69.50
57126;BME280;43000;50.770;6.110;2022-07-04T00:42:43;100004.34;;;13.96;69.67
57126;BME280;43000;50.770;6.110;2022-07-04T00:45:10;99988.59;;;13.93;69.58
57126;BME280;43000;50.770;6.110;2022-07-04T00:47:36;99987.66;;;13.94;69.54
57126;BME280;43000;50.770;6.110;2022-07-04T00:50:05;99986.25;;;13.88;69.20
57126;BME280;43000;50.770;6.110;2022-07-04T00:52:32;99984.41;;;13.74;69.89
57126;BME280;43000;50.770;6.110;2022-07-04T00:54:58;99987.38;;;13.54;70.91
57126;BME280;43000;50.770;6.110;2022-07-04T00:57:26;99987.19;;;13.57;71.18
57126;BME280;43000;50.770;6.110;2022-07-04T00:59:53;99989.00;;;13.57;70.60
57126;BME280;43000;50.770;6.110;2022-07-04T01:02:20;99992.50;;;13.57;71.12
57126;BME280;43000;50.770;6.110;2022-07-04T01:04:46;99994.38;;;13.55;71.07
57126;BME280;43000;50.770;6.110;2022-07-04T01:07:14;99989.06;;;13.55;71.09
57126;BME280;43000;50.770;6.110;2022-07-04T01:09:41;99986.69;;;13.50;70.63
57126;BME280;43000;50.770;6.110;2022-07-04T01:12:08;99989.50;;;13.47;70.64
57126;BME280;43000;50.770;6.110;2022-07-04T01:14:37;99996.81;;;13.44;71.13
57126;BME280;43000;50.770;6.110;2022-07-04T01:17:04;99988.94;;;13.42;71.49
57126;BME280;43000;50.770;6.110;2022-07-04T01:19:31;100000.63;;;13.38;71.66
57126;BME280;43000;50.770;6.110;2022-07-04T01:22:03;99995.59;;;13.34;72.17
57126;BME280;43000;50.770;6.110;2022-07-04T01:24:31;99999.28;;;13.31;71.92
57126;BME280;43000;50.770;6.110;2022-07-04T01:26:58;99987.19;;;13.27;72.17
57126;BME280;43000;50.770;6.110;2022-07-04T01:29:24;99991.50;;;13.28;71.93
57126;BME280;43000;50.770;6.110;2022-07-04T01:31:51;99989.28;;;13.20;71.87
57126;BME280;43000;50.770;6.110;2022-07-04T01:34:18;99990.50;;;13.15;72.21
57126;BME280;43000;50.770;6.110;2022-07-04T01:36:45;100000.13;;;13.16;71.59
57126;BME280;43000;50.770;6.110;2022-07-04T01:39:13;100001.06;;;13.15;71.99
57126;BME280;43000;50.770;6.110;2022-07-04T01:41:39;100002.09;;;13.12;71.79
57126;BME280;43000;50.770;6.110;2022-07-04T01:44:06;99990.94;;;13.07;72.15
57126;BME280;43000;50.770;6.110;2022-07-04T01:46:33;99997.97;;;13.06;72.29
57126;BME280;43000;50.770;6.110;2022-07-04T01:48:59;100004.22;;;13.05;71.95
57126;BME280;43000;50.770;6.110;2022-07-04T01:51:26;99996.47;;;13.02;72.53
57126;BME280;43000;50.770;6.110;2022-07-04T01:53:52;99999.25;;;12.99;71.67
57126;BME280;43000;50.770;6.110;2022-07-04T01:56:20;100002.78;;;13.00;72.15
57126;BME280;43000;50.770;6.110;2022-07-04T01:58:47;100002.19;;;12.95;72.21
57126;BME280;43000;50.770;6.110;2022-07-04T02:01:13;100000.47;;;12.94;72.55
57126;BME280;43000;50.770;6.110;2022-07-04T02:03:58;100004.91;;;12.93;72.44
57126;BME280;43000;50.770;6.110;2022-07-04T02:06:25;99998.78;;;12.93;72.39
57126;BME280;43000;50.770;6.110;2022-07-04T02:08:51;100006.97;;;12.88;72.40
57126;BME280;43000;50.770;6.110;2022-07-04T02:11:38;100001.06;;;12.83;72.40
57126;BME280;43000;50.770;6.110;2022-07-04T02:14:22;100003.97;;;12.78;72.03
57126;BME280;43000;50.770;6.110;2022-07-04T02:16:48;100007.53;;;12.77;72.89
57126;BME280;43000;50.770;6.110;2022-07-04T02:19:15;100006.69;;;12.77;72.57
57126;BME280;43000;50.770;6.110;2022-07-04T02:21:42;100003.44;;;12.72;72.54
57126;BME280;43000;50.770;6.110;2022-07-04T02:24:09;100004.81;;;12.63;73.08
57126;BME280;43000;50.770;6.110;2022-07-04T02:26:37;100015.72;;;12.57;73.19
57126;BME280;43000;50.770;6.110;2022-07-04T02:29:03;100016.06;;;12.51;73.14
57126;BME280;43000;50.770;6.110;2022-07-04T02:31:30;100018.09;;;12.45;73.40
57126;BME280;43000;50.770;6.110;2022-07-04T02:33:56;100007.59;;;12.44;73.71
57126;BME280;43000;50.770;6.110;2022-07-04T02:36:23;100018.16;;;12.44;73.66
57126;BME280;43000;50.770;6.110;2022-07-04T02:38:49;100021.81;;;12.41;73.14
57126;BME280;43000;50.770;6.110;2022-07-04T02:41:16;100026.41;;;12.38;73.60
57126;BME280;43000;50.770;6.110;2022-07-04T02:43:44;100027.41;;;12.35;73.97
57126;BME280;43000;50.770;6.110;2022-07-04T02:46:10;100018.81;;;12.32;74.09
57126;BME280;43000;50.770;6.110;2022-07-04T02:48:37;100030.34;;;12.31;73.86
57126;BME280;43000;50.770;6.110;2022-07-04T02:51:04;100024.94;;;12.32;74.44
57126;BME280;43000;50.770;6.110;2022-07-04T02:53:30;100035.50;;;12.32;73.99
57126;BME280;43000;50.770;6.110;2022-07-04T02:55:57;100035.63;;;12.31;74.10
57126;BME280;43000;50.770;6.110;2022-07-04T02:58:23;100040.03;;;12.30;74.11
57126;BME280;43000;50.770;6.110;2022-07-04T03:00:51;100034.84;;;12.29;73.98
57126;BME280;43000;50.770;6.110;2022-07-04T03:03:18;100039.28;;;12.28;74.00
57126;BME280;43000;50.770;6.110;2022-07-04T03:05:44;100045.41;;;12.29;74.26
57126;BME280;43000;50.770;6.110;2022-07-04T03:08:11;100034.84;;;12.29;74.27
57126;BME280;43000;50.770;6.110;2022-07-04T03:10:37;100048.75;;;12.32;74.59
57126;BME280;43000;50.770;6.110;2022-07-04T03:13:04;100052.22;;;12.33;74.28
57126;BME280;43000;50.770;6.110;2022-07-04T03:15:31;100059.31;;;12.32;74.00
57126;BME280;43000;50.770;6.110;2022-07-04T03:17:59;100059.41;;;12.31;74.47
57126;BME280;43000;50.770;6.110;2022-07-04T03:20:26;100056.66;;;12.32;74.19
57126;BME280;43000;50.770;6.110;2022-07-04T03:22:52;100057.50;;;12.33;74.06
57126;BME280;43000;50.770;6.110;2022-07-04T03:25:19;100062.97;;;12.30;73.77
57126;BME280;43000;50.770;6.110;2022-07-04T03:27:46;100070.13;;;12.28;74.24
57126;BME280;43000;50.770;6.110;2022-07-04T03:30:13;100064.06;;;12.25;74.41
57126;BME280;43000;50.770;6.110;2022-07-04T03:32:39;100078.28;;;12.23;74.36
57126;BME280;43000;50.770;6.110;2022-07-04T03:35:08;100067.81;;;12.21;74.04
57126;BME280;43000;50.770;6.110;2022-07-04T03:37:35;100073.09;;;12.21;74.78
57126;BME280;43000;50.770;6.110;2022-07-04T03:40:01;100071.47;;;12.19;74.07
57126;BME280;43000;50.770;6.110;2022-07-04T03:42:28;100071.63;;;12.16;74.96
57126;BME280;43000;50.770;6.110;2022-07-04T03:44:55;100061.19;;;12.13;74.60
57126;BME280;43000;50.770;6.110;2022-07-04T03:47:22;100069.28;;;12.10;74.52
57126;BME280;43000;50.770;6.110;2022-07-04T03:49:48;100068.50;;;12.08;74.76
57126;BME280;43000;50.770;6.110;2022-07-04T03:52:16;100073.94;;;12.05;74.71
57126;BME280;43000;50.770;6.110;2022-07-04T03:54:43;100068.91;;;12.00;75.08
57126;BME280;43000;50.770;6.110;2022-07-04T03:57:10;100069.75;;;12.00;75.67
57126;BME280;43000;50.770;6.110;2022-07-04T03:59:36;100066.25;;;12.00;75.80
57126;BME280;43000;50.770;6.110;2022-07-04T04:02:04;100070.59;;;12.01;75.15
57126;BME280;43000;50.770;6.110;2022-07-04T04:04:30;100071.53;;;12.00;75.34
57126;BME280;43000;50.770;6.110;2022-07-04T04:07:16;100060.28;;;11.96;75.52
57126;BME280;43000;50.770;6.110;2022-07-04T04:09:43;100071.75;;;11.95;75.42
57126;BME280;43000;50.770;6.110;2022-07-04T04:12:10;100075.97;;;11.99;75.46
57126;BME280;43000;50.770;6.110;2022-07-04T04:14:36;100068.72;;;12.03;75.95
57126;BME280;43000;50.770;6.110;2022-07-04T04:17:03;100065.19;;;12.04;75.52
57126;BME280;43000;50.770;6.110;2022-07-04T04:19:30;100070.28;;;12.07;75.55
57126;BME280;43000;50.770;6.110;2022-07-04T04:21:57;100075.41;;;12.10;75.83
57126;BME280;43000;50.770;6.110;2022-07-04T04:24:24;100078.69;;;12.15;75.61
57126;BME280;43000;50.770;6.110;2022-07-04T04:26:51;100083.56;;;12.23;75.03
57126;BME280;43000;50.770;6.110;2022-07-04T04:29:18;100078.84;;;12.30;75.08
57126;BME280;43000;50.770;6.110;2022-07-04T04:31:44;100079.38;;;12.36;74.72
57126;BME280;43000;50.770;6.110;2022-07-04T04:34:11;100076.56;;;12.39;74.31
57126;BME280;43000;50.770;6.110;2022-07-04T04:36:37;100076.41;;;12.42;75.02
57126;BME280;43000;50.770;6.110;2022-07-04T04:39:04;100076.94;;;12.49;74.91
57126;BME280;43000;50.770;6.110;2022-07-04T04:41:32;100078.94;;;12.61;73.77
57126;BME280;43000;50.770;6.110;2022-07-04T04:43:58;100081.19;;;12.69;74.07
57126;BME280;43000;50.770;6.110;2022-07-04T04:46:25;100085.13;;;12.78;74.14
57126;BME280;43000;50.770;6.110;2022-07-04T04:48:52;100075.16;;;12.83;73.42
57126;BME280;43000;50.770;6.110;2022-07-04T04:51:18;100071.25;;;12.90;73.50
57126;BME280;43000;50.770;6.110;2022-07-04T04:53:45;100075.94;;;13.01;73.23
57126;BME280;43000;50.770;6.110;2022-07-04T04:56:11;100078.88;;;13.12;73.67
57126;BME280;43000;50.770;6.110;2022-07-04T04:58:39;100076.38;;;13.25;72.55
57126;BME280;43000;50.770;6.110;2022-07-04T05:01:06;100066.16;;;13.35;72.21
57126;BME280;43000;50.770;6.110;2022-07-04T05:03:33;100083.44;;;13.42;72.43
57126;BME280;43000;50.770;6.110;2022-07-04T05:06:00;100076.75;;;13.50;72.35
57126;BME280;43000;50.770;6.110;2022-07-04T05:08:26;100079.53;;;13.63;71.90
57126;BME280;43000;50.770;6.110;2022-07-04T05:10:53;100084.91;;;13.78;71.74
57126;BME280;43000;50.770;6.110;2022-07-04T05:13:20;100084.13;;;13.91;71.04
57126;BME280;43000;50.770;6.110;2022-07-04T05:15:48;100083.22;;;14.07;71.12
57126;BME280;43000;50.770;6.110;2022-07-04T05:18:14;100083.06;;;14.24;70.23
57126;BME280;43000;50.770;6.110;2022-07-04T05:20:41;100083.00;;;14.40;70.16
57126;BME280;43000;50.770;6.110;2022-07-04T05:23:08;100088.25;;;14.56;69.57
57126;BME280;43000;50.770;6.110;2022-07-04T05:25:34;100096.16;;;14.72;69.04
57126;BME280;43000;50.770;6.110;2022-07-04T05:28:01;100081.09;;;14.87;68.64
57126;BME280;43000;50.770;6.110;2022-07-04T05:30:27;100086.28;;;15.02;67.97
57126;BME280;43000;50.770;6.110;2022-07-04T05:32:55;100086.91;;;15.20;66.91
57126;BME280;43000;50.770;6.110;2022-07-04T05:35:23;100087.72;;;15.35;65.91
57126;BME280;43000;50.770;6.110;2022-07-04T05:37:50;100086.34;;;15.57;65.52
57126;BME280;43000;50.770;6.110;2022-07-04T05:40:16;100083.50;;;15.87;64.18
57126;BME280;43000;50.770;6.110;2022-07-04T05:42:43;100077.50;;;16.10;63.56
57126;BME280;43000;50.770;6.110;2022-07-04T05:45:10;100073.38;;;16.32;62.78
57126;BME280;43000;50.770;6.110;2022-07-04T05:47:36;100077.44;;;16.50;62.61
57126;BME280;43000;50.770;6.110;2022-07-04T05:50:06;100072.63;;;16.68;62.24
57126;BME280;43000;50.770;6.110;2022-07-04T05:52:32;100069.03;;;16.82;61.26
57126;BME280;43000;50.770;6.110;2022-07-04T05:54:59;100068.97;;;17.08;60.51
57126;BME280;43000;50.770;6.110;2022-07-04T05:57:26;100065.78;;;17.52;58.95
57126;BME280;43000;50.770;6.110;2022-07-04T05:59:52;100059.25;;;17.80;57.77
57126;BME280;43000;50.770;6.110;2022-07-04T06:02:19;100069.69;;;17.84;57.21
57126;BME280;43000;50.770;6.110;2022-07-04T06:04:46;100060.94;;;17.81;57.48
57126;BME280;43000;50.770;6.110;2022-07-04T06:07:14;100067.03;;;17.84;57.40
57126;BME280;43000;50.770;6.110;2022-07-04T06:09:40;100066.19;;;17.83;56.36
57126;BME280;43000;50.770;6.110;2022-07-04T06:12:07;100061.06;;;17.80;56.26
57126;BME280;43000;50.770;6.110;2022-07-04T06:14:34;100058.47;;;17.78;55.85
57126;BME280;43000;50.770;6.110;2022-07-04T06:17:01;100066.41;;;17.80;55.92
57126;BME280;43000;50.770;6.110;2022-07-04T06:19:28;100066.41;;;17.80;55.89
57126;BME280;43000;50.770;6.110;2022-07-04T06:21:54;100067.16;;;17.82;55.77
57126;BME280;43000;50.770;6.110;2022-07-04T06:24:22;100064.84;;;17.89;55.41
57126;BME280;43000;50.770;6.110;2022-07-04T06:26:49;100055.78;;;17.91;55.20
57126;BME280;43000;50.770;6.110;2022-07-04T06:29:15;100056.50;;;17.93;55.60
57126;BME280;43000;50.770;6.110;2022-07-04T06:31:42;100063.19;;;17.99;55.00
57126;BME280;43000;50.770;6.110;2022-07-04T06:34:09;100052.56;;;18.10;55.10
57126;BME280;43000;50.770;6.110;2022-07-04T06:36:53;100052.22;;;18.26;54.39
57126;BME280;43000;50.770;6.110;2022-07-04T06:39:20;100063.78;;;18.38;54.70
57126;BME280;43000;50.770;6.110;2022-07-04T06:41:48;100052.16;;;18.61;54.03
57126;BME280;43000;50.770;6.110;2022-07-04T06:44:14;100057.06;;;18.79;53.06
57126;BME280;43000;50.770;6.110;2022-07-04T06:46:41;100056.31;;;18.99;52.73
57126;BME280;43000;50.770;6.110;2022-07-04T06:49:09;100058.50;;;19.05;52.33
57126;BME280;43000;50.770;6.110;2022-07-04T06:51:36;100061.03;;;19.07;51.88
57126;BME280;43000;50.770;6.110;2022-07-04T06:54:02;100060.19;;;19.06;52.00
57126;BME280;43000;50.770;6.110;2022-07-04T06:56:29;100058.00;;;19.12;50.96
57126;BME280;43000;50.770;6.110;2022-07-04T06:58:57;100058.25;;;19.08;50.79
57126;BME280;43000;50.770;6.110;2022-07-04T07:01:24;100049.03;;;19.13;50.64
57126;BME280;43000;50.770;6.110;2022-07-04T07:03:51;100055.59;;;19.08;50.84
57126;BME280;43000;50.770;6.110;2022-07-04T07:06:18;100052.06;;;19.08;51.05
57126;BME280;43000;50.770;6.110;2022-07-04T07:08:44;100057.16;;;19.11;50.20
57126;BME280;43000;50.770;6.110;2022-07-04T07:11:11;100047.06;;;19.15;50.35
57126;BME280;43000;50.770;6.110;2022-07-04T07:13:46;100044.88;;;19.20;50.67
57126;BME280;43000;50.770;6.110;2022-07-04T07:16:14;100055.66;;;19.29;50.36
57126;BME280;43000;50.770;6.110;2022-07-04T07:18:41;100047.25;;;19.34;50.56
57126;BME280;43000;50.770;6.110;2022-07-04T07:21:08;100049.66;;;19.48;50.36
57126;BME280;43000;50.770;6.110;2022-07-04T07:23:37;100051.59;;;19.58;49.29
57126;BME280;43000;50.770;6.110;2022-07-04T07:26:04;100051.72;;;19.67;49.14
57126;BME280;43000;50.770;6.110;2022-07-04T07:28:30;100051.34;;;19.93;48.18
57126;BME280;43000;50.770;6.110;2022-07-04T07:30:57;100054.94;;;20.24;47.78
57126;BME280;43000;50.770;6.110;2022-07-04T07:33:25;100054.78;;;20.58;47.07
57126;BME280;43000;50.770;6.110;2022-07-04T07:35:51;100063.69;;;20.68;46.81
57126;BME280;43000;50.770;6.110;2022-07-04T07:38:18;100053.63;;;20.91;46.21
57126;BME280;43000;50.770;6.110;2022-07-04T07:40:45;100063.16;;;21.05;45.52
57126;BME280;43000;50.770;6.110;2022-07-04T07:43:11;100065.28;;;21.21;45.14
57126;BME280;43000;50.770;6.110;2022-07-04T07:45:38;100065.25;;;21.42;44.90
57126;BME280;43000;50.770;6.110;2022-07-04T07:48:05;100074.16;;;21.52;44.96
57126;BME280;43000;50.770;6.110;2022-07-04T07:50:33;100070.66;;;21.61;44.98
57126;BME280;43000;50.770;6.110;2022-07-04T07:53:00;100069.22;;;21.57;44.43
57126;BME280;43000;50.770;6.110;2022-07-04T07:55:26;100069.31;;;21.46;44.31
57126;BME280;43000;50.770;6.110;2022-07-04T07:57:53;100084.03;;;21.42;45.01
57126;BME280;43000;50.770;6.110;2022-07-04T08:00:20;100075.97;;;21.42;45.12
57126;BME280;43000;50.770;6.110;2022-07-04T08:02:47;100080.28;;;21.33;44.81
57126;BME280;43000;50.770;6.110;2022-07-04T08:05:31;100076.88;;;21.31;44.81
57126;BME280;43000;50.770;6.110;2022-07-04T08:07:59;100072.66;;;21.38;44.90
57126;BME280;43000;50.770;6.110;2022-07-04T08:10:25;100078.38;;;21.45;44.86
57126;BME280;43000;50.770;6.110;2022-07-04T08:12:52;100075.56;;;21.47;44.43
57126;BME280;43000;50.770;6.110;2022-07-04T08:15:21;100082.19;;;21.52;43.62
57126;BME280;43000;50.770;6.110;2022-07-04T08:17:48;100075.00;;;21.53;43.90
57126;BME280;43000;50.770;6.110;2022-07-04T08:20:14;100074.28;;;21.60;44.29
57126;BME280;43000;50.770;6.110;2022-07-04T08:22:41;100077.84;;;21.71;43.03
57126;BME280;43000;50.770;6.110;2022-07-04T08:25:09;100075.31;;;21.89;43.03
57126;BME280;43000;50.770;6.110;2022-07-04T08:27:36;100074.72;;;21.65;43.11
57126;BME280;43000;50.770;6.110;2022-07-04T08:30:03;100069.94;;;21.59;43.25
57126;BME280;43000;50.770;6.110;2022-07-04T08:32:31;100068.69;;;21.63;43.32
57126;BME280;43000;50.770;6.110;2022-07-04T08:34:57;100067.25;;;21.79;43.20
57126;BME280;43000;50.770;6.110;2022-07-04T08:37:24;100068.81;;;21.91;47.34
57126;BME280;43000;50.770;6.110;2022-07-04T08:39:51;100061.00;;;22.07;45.60
57126;BME280;43000;50.770;6.110;2022-07-04T08:42:20;100062.31;;;22.03;42.83
57126;BME280;43000;50.770;6.110;2022-07-04T08:44:49;100076.16;;;22.08;43.28
57126;BME280;43000;50.770;6.110;2022-07-04T08:47:18;100066.25;;;22.09;42.86
57126;BME280;43000;50.770;6.110;2022-07-04T08:49:53;100068.25;;;21.97;42.47
57126;BME280;43000;50.770;6.110;2022-07-04T08:52:30;100069.97;;;22.27;41.96
57126;BME280;43000;50.770;6.110;2022-07-04T08:54:59;100077.69;;;22.40;39.52
57126;BME280;43000;50.770;6.110;2022-07-04T08:57:46;100068.03;;;22.67;38.69
57126;BME280;43000;50.770;6.110;2022-07-04T09:00:31;100071.72;;;22.93;37.28
57126;BME280;43000;50.770;6.110;2022-07-04T09:02:58;100069.22;;;23.20;36.40
57126;BME280;43000;50.770;6.110;2022-07-04T09:05:27;100069.06;;;23.49;38.08
57126;BME280;43000;50.770;6.110;2022-07-04T09:07:54;100070.56;;;23.33;38.24
57126;BME280;43000;50.770;6.110;2022-07-04T09:10:21;100073.25;;;23.06;39.48
57126;BME280;43000;50.770;6.110;2022-07-04T09:12:49;100067.34;;;23.02;39.83
57126;BME280;43000;50.770;6.110;2022-07-04T09:15:17;100067.84;;;22.68;40.38
57126;BME280;43000;50.770;6.110;2022-07-04T09:17:44;100058.72;;;23.26;39.54
57126;BME280;43000;50.770;6.110;2022-07-04T09:20:12;100061.38;;;23.72;37.96
57126;BME280;43000;50.770;6.110;2022-07-04T09:22:39;100059.00;;;23.87;37.61
57126;BME280;43000;50.770;6.110;2022-07-04T09:25:06;100057.13;;;23.33;38.29
57126;BME280;43000;50.770;6.110;2022-07-04T09:27:35;100059.50;;;23.36;37.63
57126;BME280;43000;50.770;6.110;2022-07-04T09:30:06;100052.09;;;24.46;35.64
57126;BME280;43000;50.770;6.110;2022-07-04T09:32:34;100049.69;;;25.38;33.59
57126;BME280;43000;50.770;6.110;2022-07-04T09:35:01;100033.72;;;26.34;32.46
57126;BME280;43000;50.770;6.110;2022-07-04T09:37:36;100033.03;;;27.36;30.50
57126;BME280;43000;50.770;6.110;2022-07-04T09:40:04;100025.38;;;27.94;29.74
57126;BME280;43000;50.770;6.110;2022-07-04T09:42:36;100021.44;;;28.34;29.13
57126;BME280;43000;50.770;6.110;2022-07-04T09:45:09;100023.19;;;28.65;28.95
57126;BME280;43000;50.770;6.110;2022-07-04T09:47:38;100032.41;;;29.00;28.19
57126;BME280;43000;50.770;6.110;2022-07-04T09:50:07;100034.75;;;29.54;27.83
57126;BME280;43000;50.770;6.110;2022-07-04T09:52:47;100032.56;;;29.86;27.10
57126;BME280;43000;50.770;6.110;2022-07-04T09:55:21;100033.22;;;28.26;28.94
57126;BME280;43000;50.770;6.110;2022-07-04T09:57:48;100043.28;;;27.09;30.91
57126;BME280;43000;50.770;6.110;2022-07-04T10:00:24;100034.75;;;27.37;30.65
57126;BME280;43000;50.770;6.110;2022-07-04T10:02:52;100029.28;;;28.29;30.07
57126;BME280;43000;50.770;6.110;2022-07-04T10:05:22;100033.16;;;28.79;28.93
57126;BME280;43000;50.770;6.110;2022-07-04T10:07:49;100031.69;;;29.43;27.76
57126;BME280;43000;50.770;6.110;2022-07-04T10:10:27;100028.31;;;28.60;28.77
57126;BME280;43000;50.770;6.110;2022-07-04T10:12:56;100031.31;;;28.95;28.57
57126;BME280;43000;50.770;6.110;2022-07-04T10:15:24;100016.09;;;29.66;27.50
57126;BME280;43000;50.770;6.110;2022-07-04T10:17:51;100031.91;;;29.41;27.02
57126;BME280;43000;50.770;6.110;2022-07-04T10:20:18;100015.78;;;28.59;28.73
57126;BME280;43000;50.770;6.110;2022-07-04T10:22:44;100015.19;;;29.44;27.17
57126;BME280;43000;50.770;6.110;2022-07-04T10:25:11;100021.38;;;29.96;26.43
57126;BME280;43000;50.770;6.110;2022-07-04T10:27:38;100014.19;;;30.38;25.11
57126;BME280;43000;50.770;6.110;2022-07-04T10:30:06;100009.53;;;30.67;25.04
57126;BME280;43000;50.770;6.110;2022-07-04T10:32:36;100011.19;;;30.05;25.58
57126;BME280;43000;50.770;6.110;2022-07-04T10:35:04;100002.22;;;30.32;25.32
57126;BME280;43000;50.770;6.110;2022-07-04T10:38:04;100000.66;;;30.86;24.74
57126;BME280;43000;50.770;6.110;2022-07-04T10:40:40;99996.91;;;30.94;25.29
57126;BME280;43000;50.770;6.110;2022-07-04T10:46:36;99998.31;;;31.31;24.85
57126;BME280;43000;50.770;6.110;2022-07-04T10:49:06;99996.09;;;31.48;24.48
57126;BME280;43000;50.770;6.110;2022-07-04T10:51:41;99993.34;;;31.55;24.40
57126;BME280;43000;50.770;6.110;2022-07-04T10:54:10;99988.31;;;31.65;24.18
57126;BME280;43000;50.770;6.110;2022-07-04T10:56:42;99989.34;;;31.44;24.74
57126;BME280;43000;50.770;6.110;2022-07-04T10:59:14;99982.34;;;31.28;24.23
57126;BME280;43000;50.770;6.110;2022-07-04T11:01:46;99990.47;;;30.67;24.79
57126;BME280;43000;50.770;6.110;2022-07-04T11:04:46;99999.28;;;29.63;26.11
57126;BME280;43000;50.770;6.110;2022-07-04T11:07:14;99996.31;;;28.70;27.15
57126;BME280;43000;50.770;6.110;2022-07-04T11:09:41;100004.72;;;27.93;28.87
57126;BME280;43000;50.770;6.110;2022-07-04T11:12:08;99998.19;;;27.56;30.43
57126;BME280;43000;50.770;6.110;2022-07-04T11:14:38;100002.28;;;26.89;31.25
57126;BME280;43000;50.770;6.110;2022-07-04T11:17:05;100001.44;;;26.25;32.42
57126;BME280;43000;50.770;6.110;2022-07-04T11:19:34;99995.38;;;25.74;32.20
57126;BME280;43000;50.770;6.110;2022-07-04T11:22:01;99992.50;;;25.51;32.46
57126;BME280;43000;50.770;6.110;2022-07-04T11:24:28;99991.47;;;25.52;32.26
57126;BME280;43000;50.770;6.110;2022-07-04T11:26:54;99991.53;;;25.09;32.69
57126;BME280;43000;50.770;6.110;2022-07-04T11:29:21;99995.81;;;25.20;31.79
57126;BME280;43000;50.770;6.110;2022-07-04T11:31:50;99991.00;;;25.05;31.88
57126;BME280;43000;50.770;6.110;2022-07-04T11:34:18;99989.00;;;25.07;32.66
57126;BME280;43000;50.770;6.110;2022-07-04T11:36:48;99990.59;;;25.26;32.49
57126;BME280;43000;50.770;6.110;2022-07-04T11:39:16;99982.03;;;25.39;32.00
57126;BME280;43000;50.770;6.110;2022-07-04T11:41:46;99985.06;;;25.44;32.88
57126;BME280;43000;50.770;6.110;2022-07-04T11:44:32;99979.53;;;25.62;32.44
57126;BME280;43000;50.770;6.110;2022-07-04T11:47:18;99972.59;;;25.68;31.83
57126;BME280;43000;50.770;6.110;2022-07-04T11:49:48;99972.41;;;25.61;32.35
57126;BME280;43000;50.770;6.110;2022-07-04T11:52:18;99975.63;;;25.57;33.03
57126;BME280;43000;50.770;6.110;2022-07-04T11:54:46;99982.72;;;25.74;33.17
57126;BME280;43000;50.770;6.110;2022-07-04T11:57:19;99975.97;;;25.62;31.71
57126;BME280;43000;50.770;6.110;2022-07-04T11:59:53;99976.13;;;25.68;32.27
57126;BME280;43000;50.770;6.110;2022-07-04T12:02:20;99977.31;;;25.74;32.29
57126;BME280;43000;50.770;6.110;2022-07-04T12:04:47;99983.22;;;25.78;32.86
57126;BME280;43000;50.770;6.110;2022-07-04T12:07:16;99977.84;;;25.78;32.48
57126;BME280;43000;50.770;6.110;2022-07-04T12:09:44;99972.59;;;25.68;32.45
57126;BME280;43000;50.770;6.110;2022-07-04T12:12:12;99979.50;;;25.46;32.40
57126;BME280;43000;50.770;6.110;2022-07-04T12:14:39;99973.91;;;25.39;32.59
57126;BME280;43000;50.770;6.110;2022-07-04T12:17:17;99969.34;;;25.32;33.14
57126;BME280;43000;50.770;6.110;2022-07-04T12:19:51;99968.13;;;25.18;33.31
57126;BME280;43000;50.770;6.110;2022-07-04T12:22:27;99978.47;;;25.31;33.34
57126;BME280;43000;50.770;6.110;2022-07-04T12:24:55;99966.00;;;25.54;33.42
57126;BME280;43000;50.770;6.110;2022-07-04T12:27:23;99971.91;;;25.66;32.82
57126;BME280;43000;50.770;6.110;2022-07-04T12:29:52;99969.22;;;25.74;32.25
57126;BME280;43000;50.770;6.110;2022-07-04T12:32:19;99965.84;;;25.64;32.16
57126;BME280;43000;50.770;6.110;2022-07-04T12:34:46;99964.31;;;25.61;31.63
57126;BME280;43000;50.770;6.110;2022-07-04T12:37:13;99965.16;;;25.62;30.62
57126;BME280;43000;50.770;6.110;2022-07-04T12:39:44;99958.41;;;25.49;31.21
57126;BME280;43000;50.770;6.110;2022-07-04T12:42:12;99958.91;;;25.37;30.61
57126;BME280;43000;50.770;6.110;2022-07-04T12:44:40;99960.44;;;25.23;31.37
57126;BME280;43000;50.770;6.110;2022-07-04T12:47:07;99952.16;;;25.41;31.89
57126;BME280;43000;50.770;6.110;2022-07-04T12:49:34;99954.53;;;25.60;32.89
57126;BME280;43000;50.770;6.110;2022-07-04T12:52:06;99945.41;;;25.69;32.19
57126;BME280;43000;50.770;6.110;2022-07-04T12:54:33;99937.31;;;25.69;32.79
57126;BME280;43000;50.770;6.110;2022-07-04T12:57:12;99947.47;;;25.67;32.69
57126;BME280;43000;50.770;6.110;2022-07-04T12:59:40;99957.22;;;25.52;32.91
57126;BME280;43000;50.770;6.110;2022-07-04T13:02:07;99954.88;;;25.41;32.41